sensor_id;sensor_type;location;lat;lon;timestamp;P1;durP1;ratioP1;P2;durP2;ratioP2
31974;SDS011;18500;43.618;1.474;2024-01-30T00:00:41;16.08;;;14.43;;
31974;SDS011;18500;43.618;1.474;2024-01-30T00:03:07;17.15;;;14.30;;
31974;SDS011;18500;43.618;1.474;2024-01-30T00:05:32;17.10;;;15.18;;
31974;SDS011;18500;43.618;1.474;2024-01-30T00:07:58;18.85;;;14.68;;
31974;SDS011;18500;43.618;1.474;2024-01-30T00:10:23;17.42;;;15.63;;
31974;SDS011;18500;43.618;1.474;2024-01-30T00:12:49;19.33;;;16.05;;
31974;SDS011;18500;43.618;1.474;2024-01-30T00:15:15;22.38;;;16.88;;
31974;SDS011;18500;43.618;1.474;2024-01-30T00:17:40;18.35;;;16.17;;
31974;SDS011;18500;43.618;1.474;2024-01-30T00:20:06;22.98;;;17.00;;
31974;SDS011;18500;43.618;1.474;2024-01-30T00:22:34;18.05;;;16.17;;
31974;SDS011;18500;43.618;1.474;2024-01-30T00:24:59;18.35;;;16.17;;
31974;SDS011;18500;43.618;1.474;2024-01-30T00:27:25;17.35;;;15.50;;
31974;SDS011;18500;43.618;1.474;2024-01-30T00:29:52;19.65;;;16.35;;
31974;SDS011;18500;43.618;1.474;2024-01-30T00:32:18;22.30;;;17.38;;
31974;SDS011;18500;43.618;1.474;2024-01-30T00:34:44;22.42;;;16.58;;
31974;SDS011;18500;43.618;1.474;2024-01-30T00:37:10;24.25;;;16.83;;
31974;SDS011;18500;43.618;1.474;2024-01-30T00:39:35;19.20;;;16.90;;
31974;SDS011;18500;43.618;1.474;2024-01-30T00:42:01;20.98;;;16.83;;
31974;SDS011;18500;43.618;1.474;2024-01-30T00:44:27;18.55;;;16.88;;
31974;SDS011;18500;43.618;1.474;2024-01-30T00:46:53;19.38;;;17.45;;
31974;SDS011;18500;43.618;1.474;2024-01-30T00:49:18;24.60;;;16.58;;
31974;SDS011;18500;43.618;1.474;2024-01-30T00:51:44;21.35;;;18.70;;
31974;SDS011;18500;43.618;1.474;2024-01-30T00:54:10;17.42;;;14.05;;
31974;SDS011;18500;43.618;1.474;2024-01-30T00:56:35;24.17;;;16.05;;
31974;SDS011;18500;43.618;1.474;2024-01-30T00:59:01;18.83;;;16.98;;
31974;SDS011;18500;43.618;1.474;2024-01-30T01:01:26;22.50;;;14.98;;
31974;SDS011;18500;43.618;1.474;2024-01-30T01:03:52;20.92;;;16.30;;
31974;SDS011;18500;43.618;1.474;2024-01-30T01:06:18;18.52;;;16.95;;
31974;SDS011;18500;43.618;1.474;2024-01-30T01:08:43;19.73;;;17.83;;
31974;SDS011;18500;43.618;1.474;2024-01-30T01:11:09;20.25;;;17.80;;
31974;SDS011;18500;43.618;1.474;2024-01-30T01:13:34;19.67;;;16.77;;
31974;SDS011;18500;43.618;1.474;2024-01-30T01:16:00;18.90;;;16.88;;
31974;SDS011;18500;43.618;1.474;2024-01-30T01:18:26;19.33;;;17.42;;
31974;SDS011;18500;43.618;1.474;2024-01-30T01:20:52;19.55;;;17.73;;
31974;SDS011;18500;43.618;1.474;2024-01-30T01:23:17;18.10;;;16.63;;
31974;SDS011;18500;43.618;1.474;2024-01-30T01:25:43;18.70;;;16.67;;
31974;SDS011;18500;43.618;1.474;2024-01-30T01:28:09;23.65;;;17.73;;
31974;SDS011;18500;43.618;1.474;2024-01-30T01:30:35;20.88;;;16.88;;
31974;SDS011;18500;43.618;1.474;2024-01-30T01:33:00;20.02;;;18.17;;
31974;SDS011;18500;43.618;1.474;2024-01-30T01:35:27;19.70;;;17.95;;
31974;SDS011;18500;43.618;1.474;2024-01-30T01:37:53;20.25;;;18.58;;
31974;SDS011;18500;43.618;1.474;2024-01-30T01:40:23;23.65;;;21.55;;
31974;SDS011;18500;43.618;1.474;2024-01-30T01:42:53;23.88;;;21.33;;
31974;SDS011;18500;43.618;1.474;2024-01-30T01:45:19;16.77;;;15.18;;
31974;SDS011;18500;43.618;1.474;2024-01-30T01:47:47;23.83;;;21.42;;
31974;SDS011;18500;43.618;1.474;2024-01-30T01:50:15;21.15;;;19.27;;
31974;SDS011;18500;43.618;1.474;2024-01-30T01:52:44;23.35;;;19.58;;
31974;SDS011;18500;43.618;1.474;2024-01-30T01:55:15;19.42;;;16.08;;
31974;SDS011;18500;43.618;1.474;2024-01-30T01:57:43;27.45;;;20.70;;
31974;SDS011;18500;43.618;1.474;2024-01-30T02:00:10;24.77;;;22.27;;
31974;SDS011;18500;43.618;1.474;2024-01-30T02:02:37;26.08;;;23.52;;
31974;SDS011;18500;43.618;1.474;2024-01-30T02:05:04;31.10;;;20.40;;
31974;SDS011;18500;43.618;1.474;2024-01-30T02:07:30;31.60;;;19.98;;
31974;SDS011;18500;43.618;1.474;2024-01-30T02:09:56;20.13;;;18.42;;
31974;SDS011;18500;43.618;1.474;2024-01-30T02:12:22;25.55;;;23.30;;
31974;SDS011;18500;43.618;1.474;2024-01-30T02:14:48;24.95;;;22.00;;
31974;SDS011;18500;43.618;1.474;2024-01-30T02:17:15;23.23;;;20.88;;
31974;SDS011;18500;43.618;1.474;2024-01-30T02:19:41;21.05;;;18.38;;
31974;SDS011;18500;43.618;1.474;2024-01-30T02:22:06;27.02;;;24.58;;
31974;SDS011;18500;43.618;1.474;2024-01-30T02:24:32;25.77;;;23.73;;
31974;SDS011;18500;43.618;1.474;2024-01-30T02:26:58;39.42;;;36.65;;
31974;SDS011;18500;43.618;1.474;2024-01-30T02:29:24;39.47;;;36.65;;
31974;SDS011;18500;43.618;1.474;2024-01-30T02:31:49;40.20;;;36.60;;
31974;SDS011;18500;43.618;1.474;2024-01-30T02:34:15;42.20;;;39.13;;
31974;SDS011;18500;43.618;1.474;2024-01-30T02:36:44;47.38;;;43.85;;
31974;SDS011;18500;43.618;1.474;2024-01-30T02:39:10;45.53;;;41.38;;
31974;SDS011;18500;43.618;1.474;2024-01-30T02:41:36;40.15;;;37.47;;
31974;SDS011;18500;43.618;1.474;2024-01-30T02:44:02;43.90;;;40.92;;
31974;SDS011;18500;43.618;1.474;2024-01-30T02:46:28;48.97;;;44.78;;
31974;SDS011;18500;43.618;1.474;2024-01-30T02:48:54;56.38;;;52.10;;
31974;SDS011;18500;43.618;1.474;2024-01-30T02:51:19;52.53;;;49.10;;
31974;SDS011;18500;43.618;1.474;2024-01-30T02:53:45;46.53;;;42.78;;
31974;SDS011;18500;43.618;1.474;2024-01-30T02:56:11;55.08;;;51.85;;
31974;SDS011;18500;43.618;1.474;2024-01-30T02:58:38;54.85;;;51.13;;
31974;SDS011;18500;43.618;1.474;2024-01-30T03:01:04;56.53;;;52.78;;
31974;SDS011;18500;43.618;1.474;2024-01-30T03:03:30;59.50;;;55.15;;
31974;SDS011;18500;43.618;1.474;2024-01-30T03:05:56;53.60;;;50.28;;
31974;SDS011;18500;43.618;1.474;2024-01-30T03:08:22;56.13;;;52.40;;
31974;SDS011;18500;43.618;1.474;2024-01-30T03:10:48;52.22;;;48.50;;
31974;SDS011;18500;43.618;1.474;2024-01-30T03:13:13;53.20;;;49.50;;
31974;SDS011;18500;43.618;1.474;2024-01-30T03:15:39;58.78;;;55.05;;
31974;SDS011;18500;43.618;1.474;2024-01-30T03:18:05;59.25;;;55.15;;
31974;SDS011;18500;43.618;1.474;2024-01-30T03:20:30;57.85;;;53.88;;
31974;SDS011;18500;43.618;1.474;2024-01-30T03:22:56;61.05;;;56.50;;
31974;SDS011;18500;43.618;1.474;2024-01-30T03:25:22;56.65;;;52.90;;
31974;SDS011;18500;43.618;1.474;2024-01-30T03:27:48;57.25;;;53.03;;
31974;SDS011;18500;43.618;1.474;2024-01-30T03:30:14;61.67;;;57.10;;
31974;SDS011;18500;43.618;1.474;2024-01-30T03:32:40;68.43;;;63.75;;
31974;SDS011;18500;43.618;1.474;2024-01-30T03:35:05;61.95;;;57.65;;
31974;SDS011;18500;43.618;1.474;2024-01-30T03:37:31;61.28;;;57.20;;
31974;SDS011;18500;43.618;1.474;2024-01-30T03:39:57;61.13;;;57.00;;
31974;SDS011;18500;43.618;1.474;2024-01-30T03:42:22;50.45;;;46.88;;
31974;SDS011;18500;43.618;1.474;2024-01-30T03:44:48;52.92;;;48.95;;
31974;SDS011;18500;43.618;1.474;2024-01-30T03:47:16;53.22;;;49.85;;
31974;SDS011;18500;43.618;1.474;2024-01-30T03:49:42;63.22;;;58.70;;
31974;SDS011;18500;43.618;1.474;2024-01-30T03:52:08;60.65;;;55.92;;
31974;SDS011;18500;43.618;1.474;2024-01-30T03:54:34;49.53;;;45.97;;
31974;SDS011;18500;43.618;1.474;2024-01-30T03:56:59;51.75;;;48.15;;
31974;SDS011;18500;43.618;1.474;2024-01-30T03:59:25;52.42;;;48.63;;
31974;SDS011;18500;43.618;1.474;2024-01-30T04:01:51;52.50;;;48.72;;
31974;SDS011;18500;43.618;1.474;2024-01-30T04:04:17;60.50;;;56.55;;
31974;SDS011;18500;43.618;1.474;2024-01-30T04:06:44;59.15;;;54.88;;
31974;SDS011;18500;43.618;1.474;2024-01-30T04:09:09;56.25;;;51.60;;
31974;SDS011;18500;43.618;1.474;2024-01-30T04:11:36;55.72;;;51.47;;
31974;SDS011;18500;43.618;1.474;2024-01-30T04:14:01;52.53;;;48.83;;
31974;SDS011;18500;43.618;1.474;2024-01-30T04:16:27;56.90;;;53.22;;
31974;SDS011;18500;43.618;1.474;2024-01-30T04:18:53;55.72;;;51.53;;
31974;SDS011;18500;43.618;1.474;2024-01-30T04:21:20;58.45;;;54.47;;
31974;SDS011;18500;43.618;1.474;2024-01-30T04:23:47;57.72;;;52.97;;
31974;SDS011;18500;43.618;1.474;2024-01-30T04:26:13;56.72;;;52.53;;
31974;SDS011;18500;43.618;1.474;2024-01-30T04:28:41;55.78;;;51.38;;
31974;SDS011;18500;43.618;1.474;2024-01-30T04:31:07;65.50;;;60.65;;
31974;SDS011;18500;43.618;1.474;2024-01-30T04:33:33;63.38;;;58.60;;
31974;SDS011;18500;43.618;1.474;2024-01-30T04:35:59;60.33;;;56.33;;
31974;SDS011;18500;43.618;1.474;2024-01-30T04:38:24;67.43;;;62.75;;
31974;SDS011;18500;43.618;1.474;2024-01-30T04:40:50;66.13;;;61.78;;
31974;SDS011;18500;43.618;1.474;2024-01-30T04:43:15;58.95;;;54.67;;
31974;SDS011;18500;43.618;1.474;2024-01-30T04:45:41;58.38;;;54.65;;
31974;SDS011;18500;43.618;1.474;2024-01-30T04:48:07;61.25;;;57.05;;
31974;SDS011;18500;43.618;1.474;2024-01-30T04:50:33;61.50;;;57.53;;
31974;SDS011;18500;43.618;1.474;2024-01-30T04:52:58;53.55;;;49.63;;
31974;SDS011;18500;43.618;1.474;2024-01-30T04:55:24;59.83;;;55.63;;
31974;SDS011;18500;43.618;1.474;2024-01-30T04:57:49;60.33;;;56.25;;
31974;SDS011;18500;43.618;1.474;2024-01-30T05:00:15;48.75;;;44.70;;
31974;SDS011;18500;43.618;1.474;2024-01-30T05:02:41;42.15;;;39.13;;
31974;SDS011;18500;43.618;1.474;2024-01-30T05:05:07;33.67;;;30.50;;
31974;SDS011;18500;43.618;1.474;2024-01-30T05:07:33;34.80;;;25.73;;
31974;SDS011;18500;43.618;1.474;2024-01-30T05:09:59;25.52;;;22.98;;
31974;SDS011;18500;43.618;1.474;2024-01-30T05:12:25;23.40;;;21.13;;
31974;SDS011;18500;43.618;1.474;2024-01-30T05:14:51;23.88;;;21.85;;
31974;SDS011;18500;43.618;1.474;2024-01-30T05:17:17;24.88;;;22.60;;
31974;SDS011;18500;43.618;1.474;2024-01-30T05:19:43;25.40;;;23.00;;
31974;SDS011;18500;43.618;1.474;2024-01-30T05:22:09;23.27;;;21.00;;
31974;SDS011;18500;43.618;1.474;2024-01-30T05:24:35;23.50;;;20.92;;
31974;SDS011;18500;43.618;1.474;2024-01-30T05:27:02;22.95;;;20.50;;
31974;SDS011;18500;43.618;1.474;2024-01-30T05:29:27;22.33;;;20.17;;
31974;SDS011;18500;43.618;1.474;2024-01-30T05:31:53;25.02;;;18.27;;
31974;SDS011;18500;43.618;1.474;2024-01-30T05:34:18;23.80;;;21.63;;
31974;SDS011;18500;43.618;1.474;2024-01-30T05:36:44;26.05;;;23.42;;
31974;SDS011;18500;43.618;1.474;2024-01-30T05:39:10;24.60;;;22.40;;
31974;SDS011;18500;43.618;1.474;2024-01-30T05:41:36;23.23;;;20.83;;
31974;SDS011;18500;43.618;1.474;2024-01-30T05:44:01;23.88;;;20.58;;
31974;SDS011;18500;43.618;1.474;2024-01-30T05:46:27;21.27;;;19.15;;
31974;SDS011;18500;43.618;1.474;2024-01-30T05:48:53;23.35;;;20.92;;
31974;SDS011;18500;43.618;1.474;2024-01-30T05:51:18;23.13;;;21.05;;
31974;SDS011;18500;43.618;1.474;2024-01-30T05:53:44;23.38;;;21.13;;
31974;SDS011;18500;43.618;1.474;2024-01-30T05:56:10;23.73;;;21.60;;
31974;SDS011;18500;43.618;1.474;2024-01-30T05:58:35;21.88;;;19.80;;
31974;SDS011;18500;43.618;1.474;2024-01-30T06:01:02;26.55;;;22.35;;
31974;SDS011;18500;43.618;1.474;2024-01-30T06:03:32;27.50;;;21.38;;
31974;SDS011;18500;43.618;1.474;2024-01-30T06:05:57;21.52;;;19.42;;
31974;SDS011;18500;43.618;1.474;2024-01-30T06:08:23;24.17;;;21.85;;
31974;SDS011;18500;43.618;1.474;2024-01-30T06:10:48;21.40;;;19.30;;
31974;SDS011;18500;43.618;1.474;2024-01-30T06:13:14;24.80;;;19.17;;
31974;SDS011;18500;43.618;1.474;2024-01-30T06:15:40;21.65;;;19.15;;
31974;SDS011;18500;43.618;1.474;2024-01-30T06:18:05;26.38;;;18.83;;
31974;SDS011;18500;43.618;1.474;2024-01-30T06:20:31;22.75;;;19.73;;
31974;SDS011;18500;43.618;1.474;2024-01-30T06:22:57;20.95;;;18.73;;
31974;SDS011;18500;43.618;1.474;2024-01-30T06:25:23;20.55;;;17.35;;
31974;SDS011;18500;43.618;1.474;2024-01-30T06:27:48;20.45;;;17.83;;
31974;SDS011;18500;43.618;1.474;2024-01-30T06:30:14;20.40;;;18.27;;
31974;SDS011;18500;43.618;1.474;2024-01-30T06:32:40;22.10;;;17.25;;
31974;SDS011;18500;43.618;1.474;2024-01-30T06:35:06;17.58;;;15.32;;
31974;SDS011;18500;43.618;1.474;2024-01-30T06:37:32;17.90;;;15.63;;
31974;SDS011;18500;43.618;1.474;2024-01-30T06:39:57;23.92;;;17.65;;
31974;SDS011;18500;43.618;1.474;2024-01-30T06:42:23;21.95;;;19.05;;
31974;SDS011;18500;43.618;1.474;2024-01-30T06:44:49;25.27;;;16.73;;
31974;SDS011;18500;43.618;1.474;2024-01-30T06:47:15;23.55;;;17.00;;
31974;SDS011;18500;43.618;1.474;2024-01-30T06:49:40;25.17;;;17.20;;
31974;SDS011;18500;43.618;1.474;2024-01-30T06:52:07;24.27;;;17.88;;
31974;SDS011;18500;43.618;1.474;2024-01-30T06:54:33;20.73;;;17.08;;
31974;SDS011;18500;43.618;1.474;2024-01-30T06:56:59;23.10;;;18.10;;
31974;SDS011;18500;43.618;1.474;2024-01-30T06:59:25;21.63;;;19.38;;
31974;SDS011;18500;43.618;1.474;2024-01-30T07:01:51;20.63;;;18.42;;
31974;SDS011;18500;43.618;1.474;2024-01-30T07:04:17;20.85;;;18.65;;
31974;SDS011;18500;43.618;1.474;2024-01-30T07:06:43;31.90;;;21.50;;
31974;SDS011;18500;43.618;1.474;2024-01-30T07:09:09;30.85;;;20.80;;
31974;SDS011;18500;43.618;1.474;2024-01-30T07:11:34;23.98;;;19.85;;
31974;SDS011;18500;43.618;1.474;2024-01-30T07:14:00;30.17;;;20.05;;
31974;SDS011;18500;43.618;1.474;2024-01-30T07:16:28;22.70;;;19.42;;
31974;SDS011;18500;43.618;1.474;2024-01-30T07:18:54;32.97;;;24.15;;
31974;SDS011;18500;43.618;1.474;2024-01-30T07:21:21;36.08;;;23.58;;
31974;SDS011;18500;43.618;1.474;2024-01-30T07:23:50;25.13;;;19.25;;
31974;SDS011;18500;43.618;1.474;2024-01-30T07:26:15;35.03;;;20.67;;
31974;SDS011;18500;43.618;1.474;2024-01-30T07:28:41;23.52;;;17.98;;
31974;SDS011;18500;43.618;1.474;2024-01-30T07:31:07;21.63;;;15.93;;
31974;SDS011;18500;43.618;1.474;2024-01-30T07:33:33;25.38;;;17.73;;
31974;SDS011;18500;43.618;1.474;2024-01-30T07:35:59;24.15;;;21.52;;
31974;SDS011;18500;43.618;1.474;2024-01-30T07:38:25;26.05;;;23.13;;
31974;SDS011;18500;43.618;1.474;2024-01-30T07:40:51;24.75;;;22.00;;
31974;SDS011;18500;43.618;1.474;2024-01-30T07:43:16;27.80;;;24.98;;
31974;SDS011;18500;43.618;1.474;2024-01-30T07:45:42;28.13;;;25.25;;
31974;SDS011;18500;43.618;1.474;2024-01-30T07:48:08;29.42;;;26.70;;
31974;SDS011;18500;43.618;1.474;2024-01-30T07:50:33;32.33;;;24.55;;
31974;SDS011;18500;43.618;1.474;2024-01-30T07:52:59;35.05;;;31.33;;
31974;SDS011;18500;43.618;1.474;2024-01-30T07:55:25;34.10;;;30.83;;
31974;SDS011;18500;43.618;1.474;2024-01-30T07:57:56;35.15;;;30.98;;
31974;SDS011;18500;43.618;1.474;2024-01-30T08:00:22;43.20;;;38.95;;
31974;SDS011;18500;43.618;1.474;2024-01-30T08:02:48;42.88;;;38.47;;
31974;SDS011;18500;43.618;1.474;2024-01-30T08:05:13;48.75;;;44.45;;
31974;SDS011;18500;43.618;1.474;2024-01-30T08:07:40;50.80;;;45.83;;
31974;SDS011;18500;43.618;1.474;2024-01-30T08:10:07;62.10;;;56.80;;
31974;SDS011;18500;43.618;1.474;2024-01-30T08:12:33;58.45;;;53.35;;
31974;SDS011;18500;43.618;1.474;2024-01-30T08:14:59;61.38;;;56.80;;
31974;SDS011;18500;43.618;1.474;2024-01-30T08:17:25;64.13;;;59.92;;
31974;SDS011;18500;43.618;1.474;2024-01-30T08:19:50;62.28;;;57.88;;
31974;SDS011;18500;43.618;1.474;2024-01-30T08:22:16;67.60;;;62.38;;
31974;SDS011;18500;43.618;1.474;2024-01-30T08:24:41;72.57;;;66.85;;
31974;SDS011;18500;43.618;1.474;2024-01-30T08:27:07;72.88;;;67.40;;
31974;SDS011;18500;43.618;1.474;2024-01-30T08:29:37;63.13;;;58.20;;
31974;SDS011;18500;43.618;1.474;2024-01-30T08:32:03;70.80;;;66.05;;
31974;SDS011;18500;43.618;1.474;2024-01-30T08:34:30;74.10;;;68.78;;
31974;SDS011;18500;43.618;1.474;2024-01-30T08:36:56;79.82;;;73.00;;
31974;SDS011;18500;43.618;1.474;2024-01-30T08:39:21;82.13;;;76.85;;
31974;SDS011;18500;43.618;1.474;2024-01-30T08:41:47;82.88;;;76.80;;
31974;SDS011;18500;43.618;1.474;2024-01-30T08:44:12;101.07;;;93.88;;
31974;SDS011;18500;43.618;1.474;2024-01-30T08:46:38;103.40;;;96.57;;
31974;SDS011;18500;43.618;1.474;2024-01-30T08:49:04;98.82;;;92.78;;
31974;SDS011;18500;43.618;1.474;2024-01-30T08:51:30;91.85;;;85.75;;
31974;SDS011;18500;43.618;1.474;2024-01-30T08:53:56;94.60;;;87.72;;
31974;SDS011;18500;43.618;1.474;2024-01-30T08:56:21;104.72;;;98.00;;
31974;SDS011;18500;43.618;1.474;2024-01-30T08:58:47;94.65;;;88.95;;
31974;SDS011;18500;43.618;1.474;2024-01-30T09:01:13;90.57;;;85.03;;
31974;SDS011;18500;43.618;1.474;2024-01-30T09:03:39;84.05;;;78.65;;
31974;SDS011;18500;43.618;1.474;2024-01-30T09:06:12;90.10;;;84.07;;
31974;SDS011;18500;43.618;1.474;2024-01-30T09:11:10;46.33;;;43.05;;
31974;SDS011;18500;43.618;1.474;2024-01-30T09:13:39;47.55;;;43.65;;
31974;SDS011;18500;43.618;1.474;2024-01-30T09:16:05;42.65;;;38.78;;
31974;SDS011;18500;43.618;1.474;2024-01-30T09:18:31;36.30;;;33.03;;
31974;SDS011;18500;43.618;1.474;2024-01-30T09:20:57;42.95;;;32.00;;
31974;SDS011;18500;43.618;1.474;2024-01-30T09:23:23;30.25;;;27.65;;
31974;SDS011;18500;43.618;1.474;2024-01-30T09:25:49;20.50;;;18.88;;
31974;SDS011;18500;43.618;1.474;2024-01-30T09:28:15;24.98;;;18.92;;
31974;SDS011;18500;43.618;1.474;2024-01-30T09:30:42;21.08;;;19.13;;
31974;SDS011;18500;43.618;1.474;2024-01-30T09:33:08;19.45;;;16.08;;
31974;SDS011;18500;43.618;1.474;2024-01-30T09:35:33;23.92;;;14.98;;
31974;SDS011;18500;43.618;1.474;2024-01-30T09:37:59;16.55;;;14.07;;
31974;SDS011;18500;43.618;1.474;2024-01-30T09:40:25;16.58;;;12.82;;
31974;SDS011;18500;43.618;1.474;2024-01-30T09:42:51;15.48;;;12.63;;
31974;SDS011;18500;43.618;1.474;2024-01-30T09:45:20;20.00;;;11.82;;
31974;SDS011;18500;43.618;1.474;2024-01-30T09:47:50;15.63;;;10.38;;
31974;SDS011;18500;43.618;1.474;2024-01-30T09:50:16;14.88;;;11.30;;
31974;SDS011;18500;43.618;1.474;2024-01-30T09:52:44;15.63;;;10.70;;
31974;SDS011;18500;43.618;1.474;2024-01-30T09:55:10;17.50;;;11.30;;
31974;SDS011;18500;43.618;1.474;2024-01-30T09:57:36;14.40;;;10.70;;
31974;SDS011;18500;43.618;1.474;2024-01-30T10:00:02;13.93;;;11.60;;
31974;SDS011;18500;43.618;1.474;2024-01-30T10:02:30;16.63;;;11.00;;
31974;SDS011;18500;43.618;1.474;2024-01-30T10:04:59;14.50;;;10.52;;
31974;SDS011;18500;43.618;1.474;2024-01-30T10:07:25;15.52;;;11.13;;
31974;SDS011;18500;43.618;1.474;2024-01-30T10:09:52;21.88;;;12.10;;
31974;SDS011;18500;43.618;1.474;2024-01-30T10:12:18;15.05;;;11.15;;
31974;SDS011;18500;43.618;1.474;2024-01-30T10:14:44;19.80;;;11.75;;
31974;SDS011;18500;43.618;1.474;2024-01-30T10:17:10;14.73;;;12.20;;
31974;SDS011;18500;43.618;1.474;2024-01-30T10:19:39;19.88;;;12.65;;
31974;SDS011;18500;43.618;1.474;2024-01-30T10:22:06;19.52;;;11.13;;
31974;SDS011;18500;43.618;1.474;2024-01-30T10:24:35;14.35;;;12.88;;
31974;SDS011;18500;43.618;1.474;2024-01-30T10:27:01;25.83;;;11.95;;
31974;SDS011;18500;43.618;1.474;2024-01-30T10:29:28;18.95;;;11.93;;
31974;SDS011;18500;43.618;1.474;2024-01-30T10:32:03;13.48;;;11.68;;
31974;SDS011;18500;43.618;1.474;2024-01-30T10:34:30;17.60;;;12.02;;
31974;SDS011;18500;43.618;1.474;2024-01-30T10:39:37;16.50;;;11.80;;
31974;SDS011;18500;43.618;1.474;2024-01-30T10:42:05;17.00;;;13.93;;
31974;SDS011;18500;43.618;1.474;2024-01-30T10:44:44;24.13;;;13.82;;
31974;SDS011;18500;43.618;1.474;2024-01-30T10:47:22;24.42;;;14.75;;
31974;SDS011;18500;43.618;1.474;2024-01-30T10:49:52;18.60;;;13.65;;
31974;SDS011;18500;43.618;1.474;2024-01-30T10:52:19;20.30;;;14.70;;
31974;SDS011;18500;43.618;1.474;2024-01-30T10:54:45;17.35;;;15.10;;
31974;SDS011;18500;43.618;1.474;2024-01-30T10:57:12;17.52;;;15.20;;
31974;SDS011;18500;43.618;1.474;2024-01-30T10:59:40;20.75;;;16.77;;
31974;SDS011;18500;43.618;1.474;2024-01-30T11:02:07;23.55;;;16.38;;
31974;SDS011;18500;43.618;1.474;2024-01-30T11:04:38;20.80;;;17.50;;
31974;SDS011;18500;43.618;1.474;2024-01-30T11:09:47;21.77;;;17.67;;
31974;SDS011;18500;43.618;1.474;2024-01-30T11:12:14;20.92;;;17.48;;
31974;SDS011;18500;43.618;1.474;2024-01-30T11:14:40;22.83;;;20.27;;
31974;SDS011;18500;43.618;1.474;2024-01-30T11:17:05;24.23;;;21.83;;
31974;SDS011;18500;43.618;1.474;2024-01-30T11:19:31;24.92;;;19.75;;
31974;SDS011;18500;43.618;1.474;2024-01-30T11:21:58;22.48;;;20.52;;
31974;SDS011;18500;43.618;1.474;2024-01-30T11:24:25;26.05;;;23.67;;
31974;SDS011;18500;43.618;1.474;2024-01-30T11:26:58;27.63;;;25.25;;
31974;SDS011;18500;43.618;1.474;2024-01-30T11:29:32;30.42;;;27.45;;
31974;SDS011;18500;43.618;1.474;2024-01-30T11:32:00;28.67;;;26.17;;
31974;SDS011;18500;43.618;1.474;2024-01-30T11:34:26;30.90;;;27.85;;
31974;SDS011;18500;43.618;1.474;2024-01-30T11:36:53;32.55;;;30.15;;
31974;SDS011;18500;43.618;1.474;2024-01-30T11:39:27;29.48;;;27.23;;
31974;SDS011;18500;43.618;1.474;2024-01-30T11:41:54;30.67;;;28.13;;
31974;SDS011;18500;43.618;1.474;2024-01-30T11:44:21;30.05;;;27.90;;
31974;SDS011;18500;43.618;1.474;2024-01-30T11:46:48;31.17;;;28.80;;
31974;SDS011;18500;43.618;1.474;2024-01-30T11:49:14;37.90;;;34.05;;
31974;SDS011;18500;43.618;1.474;2024-01-30T11:51:41;35.50;;;33.08;;
31974;SDS011;18500;43.618;1.474;2024-01-30T11:54:07;36.17;;;32.58;;
31974;SDS011;18500;43.618;1.474;2024-01-30T11:56:33;38.97;;;35.88;;
31974;SDS011;18500;43.618;1.474;2024-01-30T11:58:59;36.08;;;33.72;;
31974;SDS011;18500;43.618;1.474;2024-01-30T12:01:26;31.92;;;29.25;;
31974;SDS011;18500;43.618;1.474;2024-01-30T12:03:52;31.33;;;29.38;;
31974;SDS011;18500;43.618;1.474;2024-01-30T12:06:18;33.83;;;31.33;;
31974;SDS011;18500;43.618;1.474;2024-01-30T12:08:55;38.30;;;35.13;;
31974;SDS011;18500;43.618;1.474;2024-01-30T12:11:25;36.92;;;34.05;;
31974;SDS011;18500;43.618;1.474;2024-01-30T12:13:55;34.70;;;31.95;;
31974;SDS011;18500;43.618;1.474;2024-01-30T12:16:21;34.55;;;32.35;;
31974;SDS011;18500;43.618;1.474;2024-01-30T12:18:47;34.58;;;31.45;;
31974;SDS011;18500;43.618;1.474;2024-01-30T12:21:15;34.20;;;31.90;;
31974;SDS011;18500;43.618;1.474;2024-01-30T12:23:42;29.58;;;27.63;;
31974;SDS011;18500;43.618;1.474;2024-01-30T12:26:09;26.88;;;25.08;;
31974;SDS011;18500;43.618;1.474;2024-01-30T12:28:35;27.40;;;25.40;;
31974;SDS011;18500;43.618;1.474;2024-01-30T12:31:02;28.58;;;26.27;;
31974;SDS011;18500;43.618;1.474;2024-01-30T12:33:30;27.00;;;25.00;;
31974;SDS011;18500;43.618;1.474;2024-01-30T12:35:57;27.33;;;24.52;;
31974;SDS011;18500;43.618;1.474;2024-01-30T12:38:26;25.45;;;23.67;;
31974;SDS011;18500;43.618;1.474;2024-01-30T12:40:55;26.80;;;24.20;;
31974;SDS011;18500;43.618;1.474;2024-01-30T12:43:22;30.35;;;28.27;;
31974;SDS011;18500;43.618;1.474;2024-01-30T12:45:49;33.08;;;30.85;;
31974;SDS011;18500;43.618;1.474;2024-01-30T12:48:15;29.30;;;27.20;;
31974;SDS011;18500;43.618;1.474;2024-01-30T12:50:41;29.02;;;26.98;;
31974;SDS011;18500;43.618;1.474;2024-01-30T12:53:07;25.88;;;24.08;;
31974;SDS011;18500;43.618;1.474;2024-01-30T12:55:34;25.55;;;23.08;;
31974;SDS011;18500;43.618;1.474;2024-01-30T12:57:59;23.83;;;21.85;;
31974;SDS011;18500;43.618;1.474;2024-01-30T13:00:25;24.45;;;22.42;;
31974;SDS011;18500;43.618;1.474;2024-01-30T13:02:51;25.48;;;22.98;;
31974;SDS011;18500;43.618;1.474;2024-01-30T13:05:16;24.63;;;22.30;;
31974;SDS011;18500;43.618;1.474;2024-01-30T13:07:42;26.13;;;23.95;;
31974;SDS011;18500;43.618;1.474;2024-01-30T13:10:08;27.95;;;25.58;;
31974;SDS011;18500;43.618;1.474;2024-01-30T13:12:34;25.77;;;23.98;;
31974;SDS011;18500;43.618;1.474;2024-01-30T13:15:00;23.63;;;21.60;;
31974;SDS011;18500;43.618;1.474;2024-01-30T13:17:26;22.88;;;21.17;;
31974;SDS011;18500;43.618;1.474;2024-01-30T13:19:52;22.63;;;20.67;;
31974;SDS011;18500;43.618;1.474;2024-01-30T13:22:19;23.55;;;21.77;;
31974;SDS011;18500;43.618;1.474;2024-01-30T13:24:46;22.75;;;20.67;;
31974;SDS011;18500;43.618;1.474;2024-01-30T13:27:12;23.35;;;21.50;;
31974;SDS011;18500;43.618;1.474;2024-01-30T13:29:38;24.25;;;21.88;;
31974;SDS011;18500;43.618;1.474;2024-01-30T13:32:04;22.08;;;20.27;;
31974;SDS011;18500;43.618;1.474;2024-01-30T13:34:30;23.98;;;21.25;;
31974;SDS011;18500;43.618;1.474;2024-01-30T13:36:55;24.17;;;22.10;;
31974;SDS011;18500;43.618;1.474;2024-01-30T13:39:21;23.95;;;21.70;;
31974;SDS011;18500;43.618;1.474;2024-01-30T13:41:48;24.25;;;22.25;;
31974;SDS011;18500;43.618;1.474;2024-01-30T13:44:14;23.02;;;20.98;;
31974;SDS011;18500;43.618;1.474;2024-01-30T13:46:41;23.92;;;21.30;;
31974;SDS011;18500;43.618;1.474;2024-01-30T13:49:07;22.75;;;20.55;;
31974;SDS011;18500;43.618;1.474;2024-01-30T13:51:33;23.77;;;21.98;;
31974;SDS011;18500;43.618;1.474;2024-01-30T13:53:58;23.00;;;20.83;;
31974;SDS011;18500;43.618;1.474;2024-01-30T13:56:24;24.55;;;22.75;;
31974;SDS011;18500;43.618;1.474;2024-01-30T13:58:51;23.55;;;21.73;;
31974;SDS011;18500;43.618;1.474;2024-01-30T14:01:18;24.33;;;22.13;;
31974;SDS011;18500;43.618;1.474;2024-01-30T14:03:44;24.60;;;22.75;;
31974;SDS011;18500;43.618;1.474;2024-01-30T14:06:10;22.17;;;20.50;;
31974;SDS011;18500;43.618;1.474;2024-01-30T14:08:36;23.55;;;21.65;;
31974;SDS011;18500;43.618;1.474;2024-01-30T14:11:02;21.45;;;19.80;;
31974;SDS011;18500;43.618;1.474;2024-01-30T14:13:28;23.90;;;21.52;;
31974;SDS011;18500;43.618;1.474;2024-01-30T14:15:55;23.23;;;21.65;;
31974;SDS011;18500;43.618;1.474;2024-01-30T14:18:21;24.40;;;22.35;;
31974;SDS011;18500;43.618;1.474;2024-01-30T14:20:47;23.67;;;21.85;;
31974;SDS011;18500;43.618;1.474;2024-01-30T14:23:13;23.70;;;21.67;;